Portada
METAR-TAF:

METAR-TAF

Aeroports :

Còrdova, Espanya

latitud: 37-51N, longitud: 004-51W, altitud: 90 m

Observació

L'informe es va fer fa 33 minuts, a les 20:30 UTC
Vent 10 kt del Oest/Sud-Oest, variant entre Sud/Sud-Oest i Oest
Temperatura 11°C
Humitat 71%
Pressió 1018 hPa
Visibilitat 10 km o més

METAR: LEBA 222030Z AUTO 25010KT 210V280 9999 OVC034/// 11/06 Q1018

Hora: 22:03 (21:03 UTC)

Pronòstic

L'informe es va fer fa 7 hores i 3 minuts, a les 14:00 UTC
Pronòstic vàlid del 22 a les 15 UTC al 22 a les 24 UTC
Vent 9 kt del Oest
Visibilitat 10 km o més
Núvols disperses a una alçada de 3500 ft

TAF: LEBA 221400Z 2215/2224 26009KT 9999 SCT035

Observacions i pronòstics meteorològics de més de 4000 aeroports (METAR i TAF).

Les estacions disponibles són els punts grocs i vermells al mapa.

Posi el ratolí al punt desitjat per veure el nom de l'estació.

Feu clic per veure les observacions i els pronòstics meteorològics.

Per canviar el mapa: feu clic els botons verds amb una creu de color negre per apropar; al botó verd amb un guió per allunyar la imatge; o en les fletxes verdes per a mapes adjacents.


METAR-TAF: